sensor_id;sensor_type;location;lat;lon;timestamp;P1;P2;P0
54869;PMS5003;40756;-37.950;145.008;2023-06-14T00:00:07;21;20;
54869;PMS5003;40756;-37.950;145.008;2023-06-14T00:02:38;23;23;
54869;PMS5003;40756;-37.950;145.008;2023-06-14T00:05:08;39;39;
54869;PMS5003;40756;-37.950;145.008;2023-06-14T00:07:38;10;10;
54869;PMS5003;40756;-37.950;145.008;2023-06-14T00:10:08;10;10;
54869;PMS5003;40756;-37.950;145.008;2023-06-14T00:12:39;98;97;
54869;PMS5003;40756;-37.950;145.008;2023-06-14T00:15:08;82;82;
54869;PMS5003;40756;-37.950;145.008;2023-06-14T00:17:38;26;26;
54869;PMS5003;40756;-37.950;145.008;2023-06-14T00:20:08;6;5;
54869;PMS5003;40756;-37.950;145.008;2023-06-14T00:22:38;18;18;
54869;PMS5003;40756;-37.950;145.008;2023-06-14T00:25:08;10;10;
54869;PMS5003;40756;-37.950;145.008;2023-06-14T00:27:38;8;8;
54869;PMS5003;40756;-37.950;145.008;2023-06-14T00:30:08;3;3;
54869;PMS5003;40756;-37.950;145.008;2023-06-14T00:32:38;1;0;
54869;PMS5003;40756;-37.950;145.008;2023-06-14T00:35:08;2;1;
54869;PMS5003;40756;-37.950;145.008;2023-06-14T00:37:38;0;0;
54869;PMS5003;40756;-37.950;145.008;2023-06-14T00:40:08;11;10;
54869;PMS5003;40756;-37.950;145.008;2023-06-14T00:42:37;9;9;
54869;PMS5003;40756;-37.950;145.008;2023-06-14T00:45:08;10;10;
54869;PMS5003;40756;-37.950;145.008;2023-06-14T00:47:38;9;9;
54869;PMS5003;40756;-37.950;145.008;2023-06-14T00:50:11;12;12;
54869;PMS5003;40756;-37.950;145.008;2023-06-14T00:52:41;14;13;
54869;PMS5003;40756;-37.950;145.008;2023-06-14T00:55:11;11;11;
54869;PMS5003;40756;-37.950;145.008;2023-06-14T00:57:40;14;14;
54869;PMS5003;40756;-37.950;145.008;2023-06-14T01:00:11;8;8;
54869;PMS5003;40756;-37.950;145.008;2023-06-14T01:02:41;1;0;
54869;PMS5003;40756;-37.950;145.008;2023-06-14T01:05:10;1;1;
54869;PMS5003;40756;-37.950;145.008;2023-06-14T01:07:43;1;1;
54869;PMS5003;40756;-37.950;145.008;2023-06-14T01:10:29;0;0;
54869;PMS5003;40756;-37.950;145.008;2023-06-14T01:13:10;0;0;
54869;PMS5003;40756;-37.950;145.008;2023-06-14T01:15:47;1;1;
54869;PMS5003;40756;-37.950;145.008;2023-06-14T01:18:18;0;0;
54869;PMS5003;40756;-37.950;145.008;2023-06-14T01:20:47;2;1;
54869;PMS5003;40756;-37.950;145.008;2023-06-14T01:23:17;0;0;
54869;PMS5003;40756;-37.950;145.008;2023-06-14T01:25:48;0;0;
54869;PMS5003;40756;-37.950;145.008;2023-06-14T01:28:18;0;0;
54869;PMS5003;40756;-37.950;145.008;2023-06-14T01:30:49;0;0;
54869;PMS5003;40756;-37.950;145.008;2023-06-14T01:33:21;0;0;
54869;PMS5003;40756;-37.950;145.008;2023-06-14T01:35:53;0;0;
54869;PMS5003;40756;-37.950;145.008;2023-06-14T01:38:25;0;0;
54869;PMS5003;40756;-37.950;145.008;2023-06-14T01:40:55;0;0;
54869;PMS5003;40756;-37.950;145.008;2023-06-14T01:43:26;0;0;
54869;PMS5003;40756;-37.950;145.008;2023-06-14T01:46:00;0;0;
54869;PMS5003;40756;-37.950;145.008;2023-06-14T01:48:31;0;0;
54869;PMS5003;40756;-37.950;145.008;2023-06-14T01:51:01;10;10;
54869;PMS5003;40756;-37.950;145.008;2023-06-14T01:53:31;1;1;
54869;PMS5003;40756;-37.950;145.008;2023-06-14T01:56:01;0;0;
54869;PMS5003;40756;-37.950;145.008;2023-06-14T01:58:30;0;0;
54869;PMS5003;40756;-37.950;145.008;2023-06-14T02:01:00;0;0;
54869;PMS5003;40756;-37.950;145.008;2023-06-14T02:03:29;0;0;
54869;PMS5003;40756;-37.950;145.008;2023-06-14T02:05:59;0;0;
54869;PMS5003;40756;-37.950;145.008;2023-06-14T02:08:29;0;0;
54869;PMS5003;40756;-37.950;145.008;2023-06-14T02:10:58;0;0;
54869;PMS5003;40756;-37.950;145.008;2023-06-14T02:13:28;1;0;
54869;PMS5003;40756;-37.950;145.008;2023-06-14T02:15:58;0;0;
54869;PMS5003;40756;-37.950;145.008;2023-06-14T02:18:28;0;0;
54869;PMS5003;40756;-37.950;145.008;2023-06-14T02:20:58;0;0;
54869;PMS5003;40756;-37.950;145.008;2023-06-14T02:23:27;0;0;
54869;PMS5003;40756;-37.950;145.008;2023-06-14T02:25:57;0;0;
54869;PMS5003;40756;-37.950;145.008;2023-06-14T02:28:26;0;0;
54869;PMS5003;40756;-37.950;145.008;2023-06-14T02:30:56;0;0;
54869;PMS5003;40756;-37.950;145.008;2023-06-14T02:33:26;0;0;
54869;PMS5003;40756;-37.950;145.008;2023-06-14T02:35:55;0;0;
54869;PMS5003;40756;-37.950;145.008;2023-06-14T02:38:26;1;1;
54869;PMS5003;40756;-37.950;145.008;2023-06-14T02:40:56;0;0;
54869;PMS5003;40756;-37.950;145.008;2023-06-14T02:43:25;0;0;
54869;PMS5003;40756;-37.950;145.008;2023-06-14T02:45:56;1;0;
54869;PMS5003;40756;-37.950;145.008;2023-06-14T02:48:25;0;0;
54869;PMS5003;40756;-37.950;145.008;2023-06-14T02:50:55;0;0;
54869;PMS5003;40756;-37.950;145.008;2023-06-14T02:53:25;0;0;
54869;PMS5003;40756;-37.950;145.008;2023-06-14T02:55:54;0;0;
54869;PMS5003;40756;-37.950;145.008;2023-06-14T02:58:24;0;0;
54869;PMS5003;40756;-37.950;145.008;2023-06-14T03:00:53;0;0;
54869;PMS5003;40756;-37.950;145.008;2023-06-14T03:03:23;1;1;
54869;PMS5003;40756;-37.950;145.008;2023-06-14T03:05:53;0;0;
54869;PMS5003;40756;-37.950;145.008;2023-06-14T03:08:22;1;1;
54869;PMS5003;40756;-37.950;145.008;2023-06-14T03:10:52;0;0;
54869;PMS5003;40756;-37.950;145.008;2023-06-14T03:13:21;1;0;
54869;PMS5003;40756;-37.950;145.008;2023-06-14T03:15:51;1;1;
54869;PMS5003;40756;-37.950;145.008;2023-06-14T03:18:21;1;1;
54869;PMS5003;40756;-37.950;145.008;2023-06-14T03:20:50;2;1;
54869;PMS5003;40756;-37.950;145.008;2023-06-14T03:23:20;0;0;
54869;PMS5003;40756;-37.950;145.008;2023-06-14T03:25:50;3;1;
54869;PMS5003;40756;-37.950;145.008;2023-06-14T03:28:19;0;0;
54869;PMS5003;40756;-37.950;145.008;2023-06-14T03:30:48;6;4;
54869;PMS5003;40756;-37.950;145.008;2023-06-14T03:33:18;3;1;
54869;PMS5003;40756;-37.950;145.008;2023-06-14T03:35:47;1;1;
54869;PMS5003;40756;-37.950;145.008;2023-06-14T03:38:17;1;1;
54869;PMS5003;40756;-37.950;145.008;2023-06-14T03:40:48;4;4;
54869;PMS5003;40756;-37.950;145.008;2023-06-14T03:43:17;2;2;
54869;PMS5003;40756;-37.950;145.008;2023-06-14T03:45:47;1;1;
54869;PMS5003;40756;-37.950;145.008;2023-06-14T03:48:17;3;1;
54869;PMS5003;40756;-37.950;145.008;2023-06-14T03:50:46;2;2;
54869;PMS5003;40756;-37.950;145.008;2023-06-14T03:53:16;4;3;
54869;PMS5003;40756;-37.950;145.008;2023-06-14T03:55:46;1;0;
54869;PMS5003;40756;-37.950;145.008;2023-06-14T03:58:15;1;1;
54869;PMS5003;40756;-37.950;145.008;2023-06-14T04:00:45;1;0;
54869;PMS5003;40756;-37.950;145.008;2023-06-14T04:03:14;2;2;
54869;PMS5003;40756;-37.950;145.008;2023-06-14T04:05:44;0;0;
54869;PMS5003;40756;-37.950;145.008;2023-06-14T04:08:14;1;0;
54869;PMS5003;40756;-37.950;145.008;2023-06-14T04:10:43;0;0;
54869;PMS5003;40756;-37.950;145.008;2023-06-14T04:13:13;0;0;
54869;PMS5003;40756;-37.950;145.008;2023-06-14T04:15:43;2;2;
54869;PMS5003;40756;-37.950;145.008;2023-06-14T04:18:12;1;1;
54869;PMS5003;40756;-37.950;145.008;2023-06-14T04:20:42;2;2;
54869;PMS5003;40756;-37.950;145.008;2023-06-14T04:23:12;1;1;
54869;PMS5003;40756;-37.950;145.008;2023-06-14T04:25:43;0;0;
54869;PMS5003;40756;-37.950;145.008;2023-06-14T04:28:13;2;1;
54869;PMS5003;40756;-37.950;145.008;2023-06-14T04:30:43;4;1;
54869;PMS5003;40756;-37.950;145.008;2023-06-14T04:33:12;1;1;
54869;PMS5003;40756;-37.950;145.008;2023-06-14T04:35:42;1;1;
54869;PMS5003;40756;-37.950;145.008;2023-06-14T04:38:12;1;1;
54869;PMS5003;40756;-37.950;145.008;2023-06-14T04:40:41;0;0;
54869;PMS5003;40756;-37.950;145.008;2023-06-14T04:43:12;1;0;
54869;PMS5003;40756;-37.950;145.008;2023-06-14T04:45:41;1;1;
54869;PMS5003;40756;-37.950;145.008;2023-06-14T04:48:11;0;0;
54869;PMS5003;40756;-37.950;145.008;2023-06-14T04:50:41;1;0;
54869;PMS5003;40756;-37.950;145.008;2023-06-14T04:53:10;0;0;
54869;PMS5003;40756;-37.950;145.008;2023-06-14T04:55:40;0;0;
54869;PMS5003;40756;-37.950;145.008;2023-06-14T04:58:09;0;0;
54869;PMS5003;40756;-37.950;145.008;2023-06-14T05:00:39;1;1;
54869;PMS5003;40756;-37.950;145.008;2023-06-14T05:03:09;1;0;
54869;PMS5003;40756;-37.950;145.008;2023-06-14T05:05:38;1;1;
54869;PMS5003;40756;-37.950;145.008;2023-06-14T05:08:08;1;1;
54869;PMS5003;40756;-37.950;145.008;2023-06-14T05:10:38;1;1;
54869;PMS5003;40756;-37.950;145.008;2023-06-14T05:13:07;0;0;
54869;PMS5003;40756;-37.950;145.008;2023-06-14T05:15:37;1;0;
54869;PMS5003;40756;-37.950;145.008;2023-06-14T05:18:06;0;0;
54869;PMS5003;40756;-37.950;145.008;2023-06-14T05:20:36;3;1;
54869;PMS5003;40756;-37.950;145.008;2023-06-14T05:23:06;2;2;
54869;PMS5003;40756;-37.950;145.008;2023-06-14T05:25:36;1;1;
54869;PMS5003;40756;-37.950;145.008;2023-06-14T05:28:06;0;0;
54869;PMS5003;40756;-37.950;145.008;2023-06-14T05:30:35;0;0;
54869;PMS5003;40756;-37.950;145.008;2023-06-14T05:33:06;0;0;
54869;PMS5003;40756;-37.950;145.008;2023-06-14T05:35:35;2;1;
54869;PMS5003;40756;-37.950;145.008;2023-06-14T05:38:05;1;1;
54869;PMS5003;40756;-37.950;145.008;2023-06-14T05:40:35;2;2;
54869;PMS5003;40756;-37.950;145.008;2023-06-14T05:43:04;1;1;
54869;PMS5003;40756;-37.950;145.008;2023-06-14T05:45:35;2;1;
54869;PMS5003;40756;-37.950;145.008;2023-06-14T05:48:05;0;0;
54869;PMS5003;40756;-37.950;145.008;2023-06-14T05:50:34;1;1;
54869;PMS5003;40756;-37.950;145.008;2023-06-14T05:53:04;0;0;
54869;PMS5003;40756;-37.950;145.008;2023-06-14T05:55:33;0;0;
54869;PMS5003;40756;-37.950;145.008;2023-06-14T05:58:03;1;0;
54869;PMS5003;40756;-37.950;145.008;2023-06-14T06:00:33;0;0;
54869;PMS5003;40756;-37.950;145.008;2023-06-14T06:03:02;0;0;
54869;PMS5003;40756;-37.950;145.008;2023-06-14T06:05:32;1;1;
54869;PMS5003;40756;-37.950;145.008;2023-06-14T06:08:01;1;0;
54869;PMS5003;40756;-37.950;145.008;2023-06-14T06:10:31;1;1;
54869;PMS5003;40756;-37.950;145.008;2023-06-14T06:13:01;0;0;
54869;PMS5003;40756;-37.950;145.008;2023-06-14T06:15:30;1;1;
54869;PMS5003;40756;-37.950;145.008;2023-06-14T06:18:00;1;0;
54869;PMS5003;40756;-37.950;145.008;2023-06-14T06:20:30;2;1;
54869;PMS5003;40756;-37.950;145.008;2023-06-14T06:22:59;2;1;
54869;PMS5003;40756;-37.950;145.008;2023-06-14T06:25:30;2;1;
54869;PMS5003;40756;-37.950;145.008;2023-06-14T06:27:59;0;0;
54869;PMS5003;40756;-37.950;145.008;2023-06-14T06:30:29;0;0;
54869;PMS5003;40756;-37.950;145.008;2023-06-14T06:32:59;1;0;
54869;PMS5003;40756;-37.950;145.008;2023-06-14T06:35:28;0;0;
54869;PMS5003;40756;-37.950;145.008;2023-06-14T06:37:58;0;0;
54869;PMS5003;40756;-37.950;145.008;2023-06-14T06:40:28;3;2;
54869;PMS5003;40756;-37.950;145.008;2023-06-14T06:42:57;2;1;
54869;PMS5003;40756;-37.950;145.008;2023-06-14T06:45:27;1;1;
54869;PMS5003;40756;-37.950;145.008;2023-06-14T06:47:57;1;1;
54869;PMS5003;40756;-37.950;145.008;2023-06-14T06:50:27;1;1;
54869;PMS5003;40756;-37.950;145.008;2023-06-14T06:52:57;1;1;
54869;PMS5003;40756;-37.950;145.008;2023-06-14T06:55:26;1;1;
54869;PMS5003;40756;-37.950;145.008;2023-06-14T06:57:56;2;1;
54869;PMS5003;40756;-37.950;145.008;2023-06-14T07:00:26;1;0;
54869;PMS5003;40756;-37.950;145.008;2023-06-14T07:02:56;2;2;
54869;PMS5003;40756;-37.950;145.008;2023-06-14T07:05:25;1;0;
54869;PMS5003;40756;-37.950;145.008;2023-06-14T07:07:55;1;1;
54869;PMS5003;40756;-37.950;145.008;2023-06-14T07:10:25;1;0;
54869;PMS5003;40756;-37.950;145.008;2023-06-14T07:12:54;0;0;
54869;PMS5003;40756;-37.950;145.008;2023-06-14T07:15:24;1;1;
54869;PMS5003;40756;-37.950;145.008;2023-06-14T07:17:54;0;0;
54869;PMS5003;40756;-37.950;145.008;2023-06-14T07:20:23;0;0;
54869;PMS5003;40756;-37.950;145.008;2023-06-14T07:22:53;1;1;
54869;PMS5003;40756;-37.950;145.008;2023-06-14T07:25:23;0;0;
54869;PMS5003;40756;-37.950;145.008;2023-06-14T07:27:52;1;0;
54869;PMS5003;40756;-37.950;145.008;2023-06-14T07:30:22;1;1;
54869;PMS5003;40756;-37.950;145.008;2023-06-14T07:32:52;1;1;
54869;PMS5003;40756;-37.950;145.008;2023-06-14T07:35:21;1;1;
54869;PMS5003;40756;-37.950;145.008;2023-06-14T07:37:51;3;2;
54869;PMS5003;40756;-37.950;145.008;2023-06-14T07:40:21;3;3;
54869;PMS5003;40756;-37.950;145.008;2023-06-14T07:42:50;1;0;
54869;PMS5003;40756;-37.950;145.008;2023-06-14T07:45:20;2;2;
54869;PMS5003;40756;-37.950;145.008;2023-06-14T07:47:50;2;2;
54869;PMS5003;40756;-37.950;145.008;2023-06-14T07:50:20;2;1;
54869;PMS5003;40756;-37.950;145.008;2023-06-14T07:52:50;0;0;
54869;PMS5003;40756;-37.950;145.008;2023-06-14T07:55:19;2;2;
54869;PMS5003;40756;-37.950;145.008;2023-06-14T07:57:49;2;2;
54869;PMS5003;40756;-37.950;145.008;2023-06-14T08:00:19;2;2;
54869;PMS5003;40756;-37.950;145.008;2023-06-14T08:02:49;2;2;
54869;PMS5003;40756;-37.950;145.008;2023-06-14T08:05:19;2;2;
54869;PMS5003;40756;-37.950;145.008;2023-06-14T08:07:48;2;2;
54869;PMS5003;40756;-37.950;145.008;2023-06-14T08:10:18;3;3;
54869;PMS5003;40756;-37.950;145.008;2023-06-14T08:12:48;3;3;
54869;PMS5003;40756;-37.950;145.008;2023-06-14T08:15:18;6;6;
54869;PMS5003;40756;-37.950;145.008;2023-06-14T08:17:47;4;4;
54869;PMS5003;40756;-37.950;145.008;2023-06-14T08:20:17;2;2;
54869;PMS5003;40756;-37.950;145.008;2023-06-14T08:22:46;4;4;
54869;PMS5003;40756;-37.950;145.008;2023-06-14T08:25:16;4;3;
54869;PMS5003;40756;-37.950;145.008;2023-06-14T08:27:46;4;4;
54869;PMS5003;40756;-37.950;145.008;2023-06-14T08:30:15;3;3;
54869;PMS5003;40756;-37.950;145.008;2023-06-14T08:32:45;8;5;
54869;PMS5003;40756;-37.950;145.008;2023-06-14T08:35:14;4;4;
54869;PMS5003;40756;-37.950;145.008;2023-06-14T08:37:44;2;2;
54869;PMS5003;40756;-37.950;145.008;2023-06-14T08:40:18;4;4;
54869;PMS5003;40756;-37.950;145.008;2023-06-14T08:42:50;6;5;
54869;PMS5003;40756;-37.950;145.008;2023-06-14T08:45:21;4;4;
54869;PMS5003;40756;-37.950;145.008;2023-06-14T08:47:51;7;7;
54869;PMS5003;40756;-37.950;145.008;2023-06-14T08:50:22;13;13;
54869;PMS5003;40756;-37.950;145.008;2023-06-14T08:52:53;11;11;
54869;PMS5003;40756;-37.950;145.008;2023-06-14T08:55:23;18;16;
54869;PMS5003;40756;-37.950;145.008;2023-06-14T08:57:54;20;20;
54869;PMS5003;40756;-37.950;145.008;2023-06-14T09:00:25;40;38;
54869;PMS5003;40756;-37.950;145.008;2023-06-14T09:02:55;6;6;
54869;PMS5003;40756;-37.950;145.008;2023-06-14T09:05:25;4;4;
54869;PMS5003;40756;-37.950;145.008;2023-06-14T09:07:55;3;3;
54869;PMS5003;40756;-37.950;145.008;2023-06-14T09:10:24;6;5;
54869;PMS5003;40756;-37.950;145.008;2023-06-14T09:12:55;10;7;
54869;PMS5003;40756;-37.950;145.008;2023-06-14T09:15:25;9;9;
54869;PMS5003;40756;-37.950;145.008;2023-06-14T09:17:54;8;8;
54869;PMS5003;40756;-37.950;145.008;2023-06-14T09:20:24;14;13;
54869;PMS5003;40756;-37.950;145.008;2023-06-14T09:22:53;17;14;
54869;PMS5003;40756;-37.950;145.008;2023-06-14T09:25:23;17;16;
54869;PMS5003;40756;-37.950;145.008;2023-06-14T09:27:53;17;16;
54869;PMS5003;40756;-37.950;145.008;2023-06-14T09:30:22;24;22;
54869;PMS5003;40756;-37.950;145.008;2023-06-14T09:32:51;30;30;
54869;PMS5003;40756;-37.950;145.008;2023-06-14T09:35:21;24;24;
54869;PMS5003;40756;-37.950;145.008;2023-06-14T09:37:51;26;26;
54869;PMS5003;40756;-37.950;145.008;2023-06-14T09:40:23;41;41;
54869;PMS5003;40756;-37.950;145.008;2023-06-14T09:42:52;72;71;
54869;PMS5003;40756;-37.950;145.008;2023-06-14T09:45:23;33;33;
54869;PMS5003;40756;-37.950;145.008;2023-06-14T09:47:52;8;8;
54869;PMS5003;40756;-37.950;145.008;2023-06-14T09:50:24;6;5;
54869;PMS5003;40756;-37.950;145.008;2023-06-14T09:52:54;8;7;
54869;PMS5003;40756;-37.950;145.008;2023-06-14T09:55:30;6;6;
54869;PMS5003;40756;-37.950;145.008;2023-06-14T09:58:01;8;8;
54869;PMS5003;40756;-37.950;145.008;2023-06-14T10:00:34;12;11;
54869;PMS5003;40756;-37.950;145.008;2023-06-14T10:03:10;11;11;
54869;PMS5003;40756;-37.950;145.008;2023-06-14T10:05:43;16;16;
54869;PMS5003;40756;-37.950;145.008;2023-06-14T10:08:14;13;13;
54869;PMS5003;40756;-37.950;145.008;2023-06-14T10:10:46;19;17;
54869;PMS5003;40756;-37.950;145.008;2023-06-14T10:13:15;14;14;
54869;PMS5003;40756;-37.950;145.008;2023-06-14T10:15:48;15;14;
54869;PMS5003;40756;-37.950;145.008;2023-06-14T10:18:28;17;17;
54869;PMS5003;40756;-37.950;145.008;2023-06-14T10:21:12;34;32;
54869;PMS5003;40756;-37.950;145.008;2023-06-14T10:23:49;25;25;
54869;PMS5003;40756;-37.950;145.008;2023-06-14T10:26:20;21;21;
54869;PMS5003;40756;-37.950;145.008;2023-06-14T10:28:59;24;23;
54869;PMS5003;40756;-37.950;145.008;2023-06-14T10:31:41;21;21;
54869;PMS5003;40756;-37.950;145.008;2023-06-14T10:34:11;34;33;
54869;PMS5003;40756;-37.950;145.008;2023-06-14T10:36:50;34;34;
54869;PMS5003;40756;-37.950;145.008;2023-06-14T10:39:31;37;36;
54869;PMS5003;40756;-37.950;145.008;2023-06-14T10:42:06;46;45;
54869;PMS5003;40756;-37.950;145.008;2023-06-14T10:44:40;40;38;
54869;PMS5003;40756;-37.950;145.008;2023-06-14T10:47:19;38;38;
54869;PMS5003;40756;-37.950;145.008;2023-06-14T10:49:53;64;63;
54869;PMS5003;40756;-37.950;145.008;2023-06-14T10:52:25;86;85;
54869;PMS5003;40756;-37.950;145.008;2023-06-14T10:54:59;69;68;
54869;PMS5003;40756;-37.950;145.008;2023-06-14T10:57:33;70;69;
54869;PMS5003;40756;-37.950;145.008;2023-06-14T11:00:03;39;38;
54869;PMS5003;40756;-37.950;145.008;2023-06-14T11:03:51;22;20;
54869;PMS5003;40756;-37.950;145.008;2023-06-14T11:06:22;8;8;
54869;PMS5003;40756;-37.950;145.008;2023-06-14T11:09:06;10;10;
54869;PMS5003;40756;-37.950;145.008;2023-06-14T11:11:58;10;10;
54869;PMS5003;40756;-37.950;145.008;2023-06-14T11:14:31;7;7;
54869;PMS5003;40756;-37.950;145.008;2023-06-14T11:17:00;9;7;
54869;PMS5003;40756;-37.950;145.008;2023-06-14T11:19:30;5;5;
54869;PMS5003;40756;-37.950;145.008;2023-06-14T11:22:00;5;4;
54869;PMS5003;40756;-37.950;145.008;2023-06-14T11:24:31;5;5;
54869;PMS5003;40756;-37.950;145.008;2023-06-14T11:27:01;4;4;
54869;PMS5003;40756;-37.950;145.008;2023-06-14T11:29:31;6;4;
54869;PMS5003;40756;-37.950;145.008;2023-06-14T11:32:01;5;4;
54869;PMS5003;40756;-37.950;145.008;2023-06-14T11:34:33;8;6;
54869;PMS5003;40756;-37.950;145.008;2023-06-14T11:37:03;7;7;
54869;PMS5003;40756;-37.950;145.008;2023-06-14T11:39:33;3;3;
54869;PMS5003;40756;-37.950;145.008;2023-06-14T11:42:02;3;3;
54869;PMS5003;40756;-37.950;145.008;2023-06-14T11:44:32;4;4;
54869;PMS5003;40756;-37.950;145.008;2023-06-14T11:47:04;4;4;
54869;PMS5003;40756;-37.950;145.008;2023-06-14T11:49:35;7;6;
54869;PMS5003;40756;-37.950;145.008;2023-06-14T11:52:05;5;5;
54869;PMS5003;40756;-37.950;145.008;2023-06-14T11:54:36;6;6;
54869;PMS5003;40756;-37.950;145.008;2023-06-14T11:57:06;6;6;
54869;PMS5003;40756;-37.950;145.008;2023-06-14T11:59:38;4;4;
54869;PMS5003;40756;-37.950;145.008;2023-06-14T12:02:07;4;3;
54869;PMS5003;40756;-37.950;145.008;2023-06-14T12:04:37;8;8;
54869;PMS5003;40756;-37.950;145.008;2023-06-14T12:07:10;4;4;
54869;PMS5003;40756;-37.950;145.008;2023-06-14T12:09:40;7;7;
54869;PMS5003;40756;-37.950;145.008;2023-06-14T12:12:31;7;6;
54869;PMS5003;40756;-37.950;145.008;2023-06-14T12:15:03;8;8;
54869;PMS5003;40756;-37.950;145.008;2023-06-14T12:17:34;7;6;
54869;PMS5003;40756;-37.950;145.008;2023-06-14T12:20:05;11;10;
54869;PMS5003;40756;-37.950;145.008;2023-06-14T12:22:36;7;7;
54869;PMS5003;40756;-37.950;145.008;2023-06-14T12:25:06;6;6;
54869;PMS5003;40756;-37.950;145.008;2023-06-14T12:27:36;34;34;
54869;PMS5003;40756;-37.950;145.008;2023-06-14T12:30:09;14;14;
54869;PMS5003;40756;-37.950;145.008;2023-06-14T12:32:39;10;9;
54869;PMS5003;40756;-37.950;145.008;2023-06-14T12:35:08;12;11;
54869;PMS5003;40756;-37.950;145.008;2023-06-14T12:37:37;27;26;
54869;PMS5003;40756;-37.950;145.008;2023-06-14T12:40:08;17;17;
54869;PMS5003;40756;-37.950;145.008;2023-06-14T12:42:38;17;17;
54869;PMS5003;40756;-37.950;145.008;2023-06-14T12:45:07;22;21;
54869;PMS5003;40756;-37.950;145.008;2023-06-14T12:47:37;32;30;
54869;PMS5003;40756;-37.950;145.008;2023-06-14T12:50:07;38;38;
54869;PMS5003;40756;-37.950;145.008;2023-06-14T12:52:37;57;57;
54869;PMS5003;40756;-37.950;145.008;2023-06-14T12:55:07;79;78;
54869;PMS5003;40756;-37.950;145.008;2023-06-14T12:57:36;84;84;
54869;PMS5003;40756;-37.950;145.008;2023-06-14T13:00:07;93;93;
54869;PMS5003;40756;-37.950;145.008;2023-06-14T13:02:37;105;105;
54869;PMS5003;40756;-37.950;145.008;2023-06-14T13:05:06;84;84;
54869;PMS5003;40756;-37.950;145.008;2023-06-14T13:07:36;94;93;
54869;PMS5003;40756;-37.950;145.008;2023-06-14T13:10:05;112;111;
54869;PMS5003;40756;-37.950;145.008;2023-06-14T13:12:35;33;32;
54869;PMS5003;40756;-37.950;145.008;2023-06-14T13:15:05;19;18;
54869;PMS5003;40756;-37.950;145.008;2023-06-14T13:17:35;23;23;
54869;PMS5003;40756;-37.950;145.008;2023-06-14T13:20:05;26;25;
54869;PMS5003;40756;-37.950;145.008;2023-06-14T13:22:35;29;29;
54869;PMS5003;40756;-37.950;145.008;2023-06-14T13:25:05;20;19;
54869;PMS5003;40756;-37.950;145.008;2023-06-14T13:27:35;22;22;
54869;PMS5003;40756;-37.950;145.008;2023-06-14T13:30:05;19;19;
54869;PMS5003;40756;-37.950;145.008;2023-06-14T13:32:37;21;19;
54869;PMS5003;40756;-37.950;145.008;2023-06-14T13:35:07;22;21;
54869;PMS5003;40756;-37.950;145.008;2023-06-14T13:37:37;17;17;
54869;PMS5003;40756;-37.950;145.008;2023-06-14T13:40:07;22;22;
54869;PMS5003;40756;-37.950;145.008;2023-06-14T13:42:37;21;21;
54869;PMS5003;40756;-37.950;145.008;2023-06-14T13:45:07;23;23;
54869;PMS5003;40756;-37.950;145.008;2023-06-14T13:47:38;23;23;
54869;PMS5003;40756;-37.950;145.008;2023-06-14T13:50:08;19;19;
54869;PMS5003;40756;-37.950;145.008;2023-06-14T13:52:38;21;21;
54869;PMS5003;40756;-37.950;145.008;2023-06-14T13:55:08;17;16;
54869;PMS5003;40756;-37.950;145.008;2023-06-14T13:57:38;23;23;
54869;PMS5003;40756;-37.950;145.008;2023-06-14T14:00:08;31;31;
54869;PMS5003;40756;-37.950;145.008;2023-06-14T14:02:38;16;15;
54869;PMS5003;40756;-37.950;145.008;2023-06-14T14:05:08;20;20;
54869;PMS5003;40756;-37.950;145.008;2023-06-14T14:07:38;32;31;
54869;PMS5003;40756;-37.950;145.008;2023-06-14T14:10:07;4;4;
54869;PMS5003;40756;-37.950;145.008;2023-06-14T14:12:38;3;2;
54869;PMS5003;40756;-37.950;145.008;2023-06-14T14:15:08;2;2;
54869;PMS5003;40756;-37.950;145.008;2023-06-14T14:17:37;3;2;
54869;PMS5003;40756;-37.950;145.008;2023-06-14T14:20:07;2;2;
54869;PMS5003;40756;-37.950;145.008;2023-06-14T14:22:38;4;2;
54869;PMS5003;40756;-37.950;145.008;2023-06-14T14:25:08;3;2;
54869;PMS5003;40756;-37.950;145.008;2023-06-14T14:27:38;2;2;
54869;PMS5003;40756;-37.950;145.008;2023-06-14T14:30:08;2;1;
54869;PMS5003;40756;-37.950;145.008;2023-06-14T14:32:38;0;0;
54869;PMS5003;40756;-37.950;145.008;2023-06-14T14:35:08;1;1;
54869;PMS5003;40756;-37.950;145.008;2023-06-14T14:37:37;3;3;
54869;PMS5003;40756;-37.950;145.008;2023-06-14T14:40:08;3;3;
54869;PMS5003;40756;-37.950;145.008;2023-06-14T14:42:38;1;1;
54869;PMS5003;40756;-37.950;145.008;2023-06-14T14:45:08;2;2;
54869;PMS5003;40756;-37.950;145.008;2023-06-14T14:47:37;2;2;
54869;PMS5003;40756;-37.950;145.008;2023-06-14T14:50:07;1;0;
54869;PMS5003;40756;-37.950;145.008;2023-06-14T14:52:38;2;1;
54869;PMS5003;40756;-37.950;145.008;2023-06-14T14:55:08;2;2;
54869;PMS5003;40756;-37.950;145.008;2023-06-14T14:57:38;1;1;
54869;PMS5003;40756;-37.950;145.008;2023-06-14T15:00:08;2;1;
54869;PMS5003;40756;-37.950;145.008;2023-06-14T15:02:38;4;3;
54869;PMS5003;40756;-37.950;145.008;2023-06-14T15:05:08;2;1;
54869;PMS5003;40756;-37.950;145.008;2023-06-14T15:07:38;1;1;
54869;PMS5003;40756;-37.950;145.008;2023-06-14T15:10:08;2;2;
54869;PMS5003;40756;-37.950;145.008;2023-06-14T15:12:37;1;1;
54869;PMS5003;40756;-37.950;145.008;2023-06-14T15:15:07;1;1;
54869;PMS5003;40756;-37.950;145.008;2023-06-14T15:17:37;1;1;
54869;PMS5003;40756;-37.950;145.008;2023-06-14T15:20:08;1;1;
54869;PMS5003;40756;-37.950;145.008;2023-06-14T15:22:38;1;1;
54869;PMS5003;40756;-37.950;145.008;2023-06-14T15:25:08;2;1;
54869;PMS5003;40756;-37.950;145.008;2023-06-14T15:27:37;1;1;
54869;PMS5003;40756;-37.950;145.008;2023-06-14T15:30:07;1;1;
54869;PMS5003;40756;-37.950;145.008;2023-06-14T15:32:38;2;1;
54869;PMS5003;40756;-37.950;145.008;2023-06-14T15:35:07;1;1;
54869;PMS5003;40756;-37.950;145.008;2023-06-14T15:37:37;1;1;
54869;PMS5003;40756;-37.950;145.008;2023-06-14T15:40:07;3;2;
54869;PMS5003;40756;-37.950;145.008;2023-06-14T15:42:37;1;1;
54869;PMS5003;40756;-37.950;145.008;2023-06-14T15:45:07;2;2;
54869;PMS5003;40756;-37.950;145.008;2023-06-14T15:47:38;2;1;
54869;PMS5003;40756;-37.950;145.008;2023-06-14T15:50:08;0;0;
54869;PMS5003;40756;-37.950;145.008;2023-06-14T15:52:37;1;1;
54869;PMS5003;40756;-37.950;145.008;2023-06-14T15:55:07;3;1;
54869;PMS5003;40756;-37.950;145.008;2023-06-14T15:57:38;2;2;
54869;PMS5003;40756;-37.950;145.008;2023-06-14T16:00:08;2;2;
54869;PMS5003;40756;-37.950;145.008;2023-06-14T16:02:38;1;1;
54869;PMS5003;40756;-37.950;145.008;2023-06-14T16:05:08;2;2;
54869;PMS5003;40756;-37.950;145.008;2023-06-14T16:07:37;1;0;
54869;PMS5003;40756;-37.950;145.008;2023-06-14T16:10:07;2;2;
54869;PMS5003;40756;-37.950;145.008;2023-06-14T16:12:37;2;2;
54869;PMS5003;40756;-37.950;145.008;2023-06-14T16:15:07;1;1;